Time;durP1;ratioP1;P1;durP2;ratioP2;P2;SDS_P1;SDS_P2;PMS_P1;PMS_P2;Temp;Humidity;BMP_temperature;BMP_pressure;BME280_temperature;BME280_humidity;BME280_pressure;Samples;Min_cycle;Max_cycle;Signal;HPM_P1;HPM_P2
2022/12/16 00:01:52;;;;;;;12.32;11.15;;;6.10;99.90;;;;;;4956368;29;20028;-78
2022/12/16 00:04:18;;;;;;;10.50;9.50;;;6.10;99.90;;;;;;4960187;28;20038;-78
2022/12/16 00:06:44;;;;;;;12.05;10.80;;;6.10;99.90;;;;;;4956270;29;20094;-78
2022/12/16 00:09:10;;;;;;;11.50;10.45;;;6.10;99.90;;;;;;4954953;29;20397;-78
2022/12/16 00:11:36;;;;;;;10.55;9.52;;;6.10;99.90;;;;;;4962835;28;20392;-78
2022/12/16 00:14:02;;;;;;;10.85;9.75;;;6.10;99.90;;;;;;4955361;28;20031;-78
2022/12/16 00:16:28;;;;;;;10.57;9.65;;;6.10;99.90;;;;;;4956045;29;20027;-78
2022/12/16 00:18:53;;;;;;;10.75;9.75;;;6.10;99.90;;;;;;4955971;29;20031;-78
2022/12/16 00:21:20;;;;;;;10.70;9.77;;;6.10;99.90;;;;;;4962720;28;20034;-78
2022/12/16 00:23:46;;;;;;;10.93;9.93;;;6.10;99.90;;;;;;4963849;28;20034;-78
2022/12/16 00:26:13;;;;;;;11.48;10.18;;;6.10;99.90;;;;;;4961643;28;20033;-78
2022/12/16 00:28:39;;;;;;;11.40;10.07;;;6.10;99.90;;;;;;4959197;28;20030;-78
2022/12/16 00:31:05;;;;;;;12.77;11.48;;;6.10;99.90;;;;;;4969316;28;20442;-78
2022/12/16 00:33:31;;;;;;;13.35;11.95;;;6.10;99.90;;;;;;4961093;28;20114;-77
2022/12/16 00:35:57;;;;;;;13.38;12.07;;;6.10;99.90;;;;;;4962614;28;20144;-78
2022/12/16 00:38:26;;;;;;;11.75;10.45;;;6.10;99.90;;;;;;4959116;28;20141;-88
2022/12/16 00:40:52;;;;;;;12.55;11.27;;;6.10;99.90;;;;;;4957202;28;20114;-88
2022/12/16 00:43:19;;;;;;;12.52;10.95;;;6.10;99.90;;;;;;4952665;29;20500;-88
2022/12/16 00:45:45;;;;;;;15.55;13.07;;;6.10;99.90;;;;;;4954814;29;20046;-88
2022/12/16 00:48:11;;;;;;;13.35;11.93;;;6.10;99.90;;;;;;4952510;29;20050;-88
2022/12/16 00:50:36;;;;;;;12.95;11.65;;;6.00;99.90;;;;;;4952221;29;20059;-87
2022/12/16 00:53:03;;;;;;;12.32;11.02;;;6.10;99.90;;;;;;4969685;28;20027;-88
2022/12/16 00:55:29;;;;;;;11.90;10.70;;;6.10;99.90;;;;;;4971986;28;20022;-87
2022/12/16 00:57:55;;;;;;;11.30;10.20;;;6.10;99.90;;;;;;4963979;28;20105;-88
2022/12/16 01:00:21;;;;;;;12.27;10.98;;;6.10;99.90;;;;;;4971554;28;20069;-88
2022/12/16 01:02:49;;;;;;;12.98;11.65;;;6.10;99.90;;;;;;4962119;28;20098;-87
2022/12/16 01:05:18;;;;;;;14.52;12.98;;;6.10;99.90;;;;;;4961546;28;20034;-88
2022/12/16 01:07:43;;;;;;;14.43;12.00;;;6.10;99.90;;;;;;4953738;29;20103;-87
2022/12/16 01:10:10;;;;;;;13.43;12.07;;;6.10;99.90;;;;;;4964969;28;20035;-87
2022/12/16 01:12:36;;;;;;;12.00;10.90;;;6.10;99.90;;;;;;4965490;28;20097;-87
2022/12/16 01:15:03;;;;;;;12.63;11.32;;;6.10;99.90;;;;;;4954295;28;20034;-87
2022/12/16 01:17:29;;;;;;;12.52;10.73;;;6.10;99.90;;;;;;4963797;28;20085;-87
2022/12/16 01:19:55;;;;;;;13.25;11.88;;;6.10;99.90;;;;;;4972903;28;20114;-87
2022/12/16 01:22:40;;;;;;;14.40;12.65;;;6.10;99.90;;;;;;4964065;28;20034;-87
2022/12/16 01:25:07;;;;;;;17.10;14.10;;;6.10;99.90;;;;;;4967459;28;20034;-87
2022/12/16 01:27:33;;;;;;;13.75;12.27;;;6.10;99.90;;;;;;4962359;28;20478;-87
2022/12/16 01:29:58;;;;;;;13.02;11.75;;;6.10;99.90;;;;;;4965106;28;20117;-87
2022/12/16 01:32:24;;;;;;;17.00;13.88;;;6.20;99.90;;;;;;4954854;29;20031;-87
2022/12/16 01:34:51;;;;;;;12.38;10.82;;;6.20;99.90;;;;;;4968404;28;20043;-87
2022/12/16 01:37:17;;;;;;;13.73;11.82;;;6.20;99.90;;;;;;4966093;28;20031;-86
2022/12/16 01:39:43;;;;;;;12.40;11.15;;;6.20;99.90;;;;;;4972764;28;20496;-87
2022/12/16 01:42:12;;;;;;;12.95;11.63;;;6.20;99.90;;;;;;4965819;28;20031;-88
2022/12/16 01:44:38;;;;;;;13.35;12.05;;;6.20;99.90;;;;;;4958506;28;20031;-87
2022/12/16 01:47:05;;;;;;;13.07;11.60;;;6.20;99.90;;;;;;4971850;28;20031;-88
2022/12/16 01:49:40;;;;;;;14.98;13.35;;;6.20;99.90;;;;;;4973472;28;20037;-87
2022/12/16 01:52:11;;;;;;;13.00;11.70;;;6.20;99.90;;;;;;4973400;28;20023;-87
2022/12/16 01:54:42;;;;;;;14.73;12.52;;;6.20;99.90;;;;;;4974403;28;20031;-87
2022/12/16 01:57:22;;;;;;;13.38;11.98;;;6.20;99.90;;;;;;4960194;28;20102;-87
2022/12/16 01:59:51;;;;;;;11.57;10.48;;;6.20;99.90;;;;;;4954108;29;20019;-87
2022/12/16 02:02:18;;;;;;;14.52;13.02;;;6.30;99.90;;;;;;4954088;29;20055;-87
2022/12/16 02:07:27;;;;;;;12.48;11.13;;;6.30;99.90;;;;;;4958675;28;20098;-87
2022/12/16 02:09:54;;;;;;;12.48;11.27;;;6.30;99.90;;;;;;4953525;29;20035;-87
2022/12/16 02:12:48;;;;;;;13.50;12.20;;;6.30;99.90;;;;;;4962923;28;20031;-87
2022/12/16 02:15:34;;;;;;;12.77;11.57;;;6.30;99.90;;;;;;4972925;28;20043;-87
2022/12/16 02:18:41;;;;;;;14.02;12.55;;;6.30;99.90;;;;;;4972596;28;20042;-87
2022/12/16 02:21:37;;;;;;;12.80;11.50;;;6.20;99.90;;;;;;4964754;28;20413;-87
2022/12/16 02:24:22;;;;;;;13.00;11.75;;;6.20;99.90;;;;;;4953005;29;20030;-86
2022/12/16 02:27:19;;;;;;;13.80;12.38;;;6.20;99.90;;;;;;4953203;29;20130;-87
2022/12/16 02:30:09;;;;;;;15.48;13.82;;;6.20;99.90;;;;;;4954099;29;20031;-87
2022/12/16 02:32:41;;;;;;;14.48;12.57;;;6.20;99.90;;;;;;4952920;29;20081;-87
2022/12/16 02:35:13;;;;;;;13.38;12.02;;;6.20;99.90;;;;;;4958740;28;20142;-86
2022/12/16 02:37:58;;;;;;;12.57;11.38;;;6.10;99.90;;;;;;4976015;28;20049;-86
2022/12/16 02:40:42;;;;;;;13.77;12.30;;;6.10;99.90;;;;;;4969901;28;20114;-87
2022/12/16 02:43:26;;;;;;;12.23;11.10;;;6.20;99.90;;;;;;4960398;28;20023;-87
2022/12/16 02:45:52;;;;;;;13.15;11.80;;;6.20;99.90;;;;;;4967445;28;20117;-87
2022/12/16 02:48:18;;;;;;;11.88;10.68;;;6.20;99.90;;;;;;4975488;28;20070;-87
2022/12/16 02:50:48;;;;;;;13.88;12.35;;;6.30;99.90;;;;;;4965607;28;20492;-87
2022/12/16 02:53:14;;;;;;;15.38;13.05;;;6.30;99.90;;;;;;4966123;28;20441;-87
2022/12/16 02:56:03;;;;;;;14.55;13.00;;;6.30;99.90;;;;;;4967564;28;20027;-86
2022/12/16 02:58:41;;;;;;;14.43;12.93;;;6.30;99.90;;;;;;4965668;28;20043;-87
2022/12/16 03:01:18;;;;;;;14.20;12.52;;;6.20;99.90;;;;;;4968158;28;20473;-87
2022/12/16 03:04:16;;;;;;;15.65;13.57;;;6.20;99.90;;;;;;4971044;28;20035;-87
2022/12/16 03:06:47;;;;;;;15.60;14.02;;;6.20;99.90;;;;;;4958008;28;20088;-87
2022/12/16 03:09:17;;;;;;;13.52;12.25;;;6.30;99.90;;;;;;4960621;28;20031;-86
2022/12/16 03:11:45;;;;;;;14.82;13.32;;;6.20;99.90;;;;;;4960366;28;20034;-87
2022/12/16 03:14:14;;;;;;;14.43;12.98;;;6.30;99.90;;;;;;4971366;28;20512;-86
2022/12/16 03:16:41;;;;;;;13.80;12.50;;;6.30;99.90;;;;;;4966305;28;20035;-86
2022/12/16 03:19:10;;;;;;;14.43;12.93;;;6.30;99.90;;;;;;4973953;28;20027;-87
2022/12/16 03:21:58;;;;;;;12.90;11.52;;;6.30;99.90;;;;;;4973667;28;20027;-87
2022/12/16 03:24:24;;;;;;;14.48;12.93;;;6.30;99.90;;;;;;4971587;28;20501;-86
2022/12/16 03:26:58;;;;;;;14.30;12.75;;;6.30;99.90;;;;;;4964414;28;20496;-87
2022/12/16 03:29:37;;;;;;;14.07;12.73;;;6.30;99.90;;;;;;4967634;28;20054;-87
2022/12/16 03:32:14;;;;;;;13.40;12.02;;;6.30;99.90;;;;;;4974822;28;20440;-87
2022/12/16 03:34:40;;;;;;;12.32;11.02;;;6.30;99.90;;;;;;4966790;28;20489;-87
2022/12/16 03:37:08;;;;;;;12.73;11.43;;;6.30;99.90;;;;;;4970385;28;20049;-87
2022/12/16 03:39:38;;;;;;;15.43;13.70;;;6.30;99.90;;;;;;4972675;28;20034;-87
2022/12/16 03:42:05;;;;;;;17.90;14.02;;;6.30;99.90;;;;;;4966615;28;20026;-87
2022/12/16 03:44:33;;;;;;;18.33;14.88;;;6.30;99.90;;;;;;4958675;28;20060;-87
2022/12/16 03:47:01;;;;;;;17.40;14.38;;;6.20;99.90;;;;;;4966258;28;20029;-86
2022/12/16 03:49:27;;;;;;;19.90;14.60;;;6.10;99.90;;;;;;4966378;28;20030;-85
2022/12/16 03:51:56;;;;;;;16.10;13.68;;;6.00;99.90;;;;;;4966842;28;20041;-86
2022/12/16 03:54:22;;;;;;;17.52;14.88;;;6.00;99.90;;;;;;4963614;28;20034;-86
2022/12/16 03:56:48;;;;;;;15.57;13.98;;;6.00;99.90;;;;;;4966833;28;20141;-86
2022/12/16 03:59:13;;;;;;;15.25;13.65;;;6.10;99.90;;;;;;4966993;28;20111;-86
2022/12/16 04:01:40;;;;;;;16.27;13.27;;;6.10;99.90;;;;;;4959290;28;20114;-87
2022/12/16 04:04:06;;;;;;;17.77;14.38;;;6.10;99.90;;;;;;4967630;28;20035;-86
2022/12/16 04:06:32;;;;;;;17.80;14.65;;;6.10;99.90;;;;;;4974172;28;20041;-87
2022/12/16 04:08:57;;;;;;;17.95;15.38;;;6.10;99.90;;;;;;4962429;28;20038;-86
2022/12/16 04:25:27;;;;;;;16.08;14.43;;;6.20;99.90;;;;;;4971336;28;20499;-87
2022/12/16 04:27:53;;;;;;;15.60;13.32;;;6.20;99.90;;;;;;4969960;28;20037;-87
2022/12/16 04:30:20;;;;;;;18.48;14.98;;;6.30;99.90;;;;;;4973438;28;20027;-87
